createdAt,value
2022-10-10T00:11:59.413Z,9.77
2022-10-10T00:23:59.930Z,9.97
2022-10-10T00:36:00.380Z,9.88
2022-10-10T00:48:00.808Z,9.35
2022-10-10T01:00:01.237Z,9.39
2022-10-10T01:12:01.667Z,8.21
2022-10-10T01:24:02.187Z,8.76
2022-10-10T01:36:02.615Z,9.41
2022-10-10T01:48:03.067Z,8.80
2022-10-10T02:00:03.545Z,9.25
2022-10-10T02:12:03.976Z,8.97
2022-10-10T02:24:04.395Z,9.09
2022-10-10T02:36:04.898Z,9.10
2022-10-10T02:48:05.341Z,8.98
2022-10-10T03:00:05.790Z,8.38
2022-10-10T03:12:06.239Z,8.73
2022-10-10T03:24:06.682Z,8.30
2022-10-10T03:36:07.147Z,8.24
2022-10-10T03:48:07.577Z,8.19
2022-10-10T04:00:08.146Z,7.78
2022-10-10T04:12:08.478Z,8.50
2022-10-10T04:24:08.975Z,7.97
2022-10-10T04:36:09.419Z,8.39
2022-10-10T04:48:09.853Z,8.44
2022-10-10T05:00:10.311Z,8.56
2022-10-10T05:12:10.759Z,9.32
2022-10-10T05:24:11.230Z,9.93
2022-10-10T05:36:11.658Z,11.90
2022-10-10T05:48:12.112Z,13.52
2022-10-10T06:00:12.587Z,14.21
2022-10-10T06:12:13.046Z,14.26
2022-10-10T06:24:13.478Z,14.60
2022-10-10T06:36:13.919Z,15.11
2022-10-10T06:48:14.394Z,15.08
2022-10-10T07:00:14.819Z,15.69
2022-10-10T07:12:15.285Z,14.86
2022-10-10T07:24:15.702Z,15.27
2022-10-10T07:36:16.215Z,14.72
2022-10-10T07:48:16.666Z,15.64
2022-10-10T08:00:17.095Z,16.83
2022-10-10T08:12:17.516Z,16.83
2022-10-10T08:24:18.016Z,16.43
2022-10-10T08:36:18.493Z,17.12
2022-10-10T08:48:18.927Z,17.64
2022-10-10T09:00:19.323Z,17.58
2022-10-10T09:12:19.818Z,18.49
2022-10-10T09:24:20.281Z,18.30
2022-10-10T09:36:20.723Z,17.29
2022-10-10T09:48:21.159Z,17.53
2022-10-10T10:00:21.659Z,19.11
2022-10-10T10:12:22.091Z,18.99
2022-10-10T10:24:22.553Z,20.20
2022-10-10T10:36:22.984Z,20.41
2022-10-10T10:48:23.450Z,20.67
2022-10-10T11:00:47.237Z,20.40
2022-10-10T11:12:24.364Z,20.99
2022-10-10T11:24:24.791Z,21.84
2022-10-10T11:36:25.337Z,21.21
2022-10-10T11:48:25.790Z,20.02
2022-10-10T12:00:26.133Z,20.27
2022-10-10T12:12:26.637Z,20.98
2022-10-10T12:24:27.120Z,20.67
2022-10-10T12:36:27.577Z,21.89
2022-10-10T12:48:28.013Z,21.92
2022-10-10T13:00:28.462Z,22.20
2022-10-10T13:12:28.929Z,21.92
2022-10-10T13:24:29.362Z,21.69
2022-10-10T13:36:29.794Z,21.48
2022-10-10T13:48:30.292Z,20.87
2022-10-10T14:00:30.745Z,21.13
2022-10-10T14:12:31.226Z,20.70
2022-10-10T14:24:31.656Z,21.89
2022-10-10T14:36:32.131Z,21.47
2022-10-10T14:48:32.562Z,21.54
2022-10-10T15:00:33.028Z,21.26
2022-10-10T15:12:33.488Z,20.48
2022-10-10T15:24:33.884Z,20.42
2022-10-10T15:36:34.394Z,20.00
2022-10-10T15:48:34.842Z,19.98
2022-10-10T16:00:35.308Z,19.61
2022-10-10T16:12:35.716Z,18.95
2022-10-10T16:24:36.213Z,19.05
2022-10-10T16:36:36.650Z,18.76
2022-10-10T16:48:37.059Z,18.35
2022-10-10T17:00:37.577Z,17.56
2022-10-10T17:12:37.995Z,18.01
2022-10-10T17:24:38.466Z,18.04
2022-10-10T17:36:38.920Z,17.84
2022-10-10T17:48:39.371Z,16.97
2022-10-10T18:00:39.810Z,16.79
2022-10-10T18:12:40.233Z,16.63
2022-10-10T18:24:40.755Z,15.82
2022-10-10T18:36:41.191Z,15.82
2022-10-10T18:48:41.654Z,15.88
2022-10-10T19:00:42.124Z,15.74
2022-10-10T19:12:47.070Z,15.62
2022-10-10T19:24:42.992Z,15.58
2022-10-10T19:36:43.485Z,15.64
2022-10-10T19:48:43.906Z,15.98
2022-10-10T20:00:44.367Z,16.00
2022-10-10T20:12:44.800Z,15.56
2022-10-10T20:24:45.259Z,15.89
2022-10-10T20:36:45.721Z,15.97
2022-10-10T20:48:46.147Z,15.49
2022-10-10T21:00:46.641Z,14.92
2022-10-10T21:12:47.090Z,14.46
2022-10-10T21:24:47.531Z,15.00
2022-10-10T21:36:47.984Z,14.89
2022-10-10T21:48:48.439Z,14.99
2022-10-10T22:00:48.957Z,15.27
2022-10-10T22:12:49.355Z,15.10
2022-10-10T22:24:49.783Z,15.16
2022-10-10T22:36:50.236Z,15.57
2022-10-10T22:48:50.731Z,15.73
2022-10-10T23:00:51.224Z,15.21
2022-10-10T23:12:51.619Z,15.17
2022-10-10T23:24:52.075Z,15.23
2022-10-10T23:36:52.540Z,15.14
2022-10-10T23:48:52.985Z,15.18
